sensor_id;sensor_type;location;lat;lon;timestamp;pressure;altitude;pressure_sealevel;temperature;humidity
73415;BME280;61633;53.742;-2.990;2022-10-16T00:02:16;99789.15;;;8.70;60.01
73415;BME280;61633;53.742;-2.990;2022-10-16T00:04:36;99796.80;;;9.67;58.24
73415;BME280;61633;53.742;-2.990;2022-10-16T00:07:01;99799.15;;;9.35;57.36
73415;BME280;61633;53.742;-2.990;2022-10-16T00:09:27;99818.59;;;8.73;58.96
73415;BME280;61633;53.742;-2.990;2022-10-16T00:11:52;99809.76;;;9.00;57.75
73415;BME280;61633;53.742;-2.990;2022-10-16T00:14:18;99822.94;;;8.93;59.01
73415;BME280;61633;53.742;-2.990;2022-10-16T00:16:44;99821.32;;;9.06;60.10
73415;BME280;61633;53.742;-2.990;2022-10-16T00:19:11;99810.75;;;9.37;58.72
73415;BME280;61633;53.742;-2.990;2022-10-16T00:21:35;99822.85;;;9.01;58.19
73415;BME280;61633;53.742;-2.990;2022-10-16T00:24:03;99820.13;;;9.69;57.14
73415;BME280;61633;53.742;-2.990;2022-10-16T00:26:28;99821.84;;;9.34;57.83
73415;BME280;61633;53.742;-2.990;2022-10-16T00:28:52;99835.76;;;8.87;57.48
73415;BME280;61633;53.742;-2.990;2022-10-16T00:31:19;99840.60;;;9.16;56.67
73415;BME280;61633;53.742;-2.990;2022-10-16T00:33:42;99839.42;;;9.29;57.80
73415;BME280;61633;53.742;-2.990;2022-10-16T00:36:11;99837.68;;;9.28;57.95
73415;BME280;61633;53.742;-2.990;2022-10-16T00:38:34;99842.12;;;9.40;58.04
73415;BME280;61633;53.742;-2.990;2022-10-16T00:41:00;99849.35;;;9.73;57.43
73415;BME280;61633;53.742;-2.990;2022-10-16T00:43:37;99854.60;;;9.93;55.92
73415;BME280;61633;53.742;-2.990;2022-10-16T00:45:50;99863.14;;;9.23;56.77
73415;BME280;61633;53.742;-2.990;2022-10-16T00:48:21;99871.21;;;9.96;56.88
73415;BME280;61633;53.742;-2.990;2022-10-16T00:50:41;99888.30;;;10.12;57.19
73415;BME280;61633;53.742;-2.990;2022-10-16T00:53:07;99890.91;;;9.83;55.84
73415;BME280;61633;53.742;-2.990;2022-10-16T00:55:33;99895.46;;;9.18;57.85
73415;BME280;61633;53.742;-2.990;2022-10-16T00:57:58;99911.02;;;9.23;58.58
73415;BME280;61633;53.742;-2.990;2022-10-16T01:00:25;99912.27;;;9.39;58.53
73415;BME280;61633;53.742;-2.990;2022-10-16T01:02:53;99933.65;;;8.74;61.26
73415;BME280;61633;53.742;-2.990;2022-10-16T01:05:15;99927.67;;;8.51;63.67
73415;BME280;61633;53.742;-2.990;2022-10-16T01:07:48;99925.25;;;7.77;66.20
73415;BME280;61633;53.742;-2.990;2022-10-16T01:10:14;99924.38;;;8.40;67.21
73415;BME280;61633;53.742;-2.990;2022-10-16T01:12:39;99924.06;;;8.11;66.35
73415;BME280;61633;53.742;-2.990;2022-10-16T01:15:01;99927.58;;;8.38;65.22
73415;BME280;61633;53.742;-2.990;2022-10-16T01:17:27;99941.78;;;9.17;64.46
73415;BME280;61633;53.742;-2.990;2022-10-16T01:20:05;99943.02;;;8.40;63.36
73415;BME280;61633;53.742;-2.990;2022-10-16T01:22:14;99942.69;;;8.91;61.61
73415;BME280;61633;53.742;-2.990;2022-10-16T01:24:41;99946.28;;;8.65;59.76
73415;BME280;61633;53.742;-2.990;2022-10-16T01:27:11;99952.40;;;8.61;60.32
73415;BME280;61633;53.742;-2.990;2022-10-16T01:29:36;99966.88;;;8.95;58.96
73415;BME280;61633;53.742;-2.990;2022-10-16T01:31:59;99960.64;;;9.19;58.57
73415;BME280;61633;53.742;-2.990;2022-10-16T01:34:28;99967.29;;;9.31;56.30
73415;BME280;61633;53.742;-2.990;2022-10-16T01:36:51;99970.59;;;9.10;56.64
73415;BME280;61633;53.742;-2.990;2022-10-16T01:39:13;99975.10;;;8.73;57.28
73415;BME280;61633;53.742;-2.990;2022-10-16T01:41:43;99972.57;;;9.31;56.63
73415;BME280;61633;53.742;-2.990;2022-10-16T01:44:06;99991.75;;;8.99;56.80
73415;BME280;61633;53.742;-2.990;2022-10-16T01:46:31;99992.67;;;8.99;57.04
73415;BME280;61633;53.742;-2.990;2022-10-16T01:48:55;99989.46;;;9.35;56.76
73415;BME280;61633;53.742;-2.990;2022-10-16T01:51:20;99998.56;;;9.25;56.66
73415;BME280;61633;53.742;-2.990;2022-10-16T01:53:49;100002.04;;;9.84;55.73
73415;BME280;61633;53.742;-2.990;2022-10-16T01:56:12;100005.44;;;9.96;54.48
73415;BME280;61633;53.742;-2.990;2022-10-16T01:58:41;100017.08;;;9.27;54.51
73415;BME280;61633;53.742;-2.990;2022-10-16T02:01:04;100023.36;;;9.45;53.91
73415;BME280;61633;53.742;-2.990;2022-10-16T02:03:28;100016.57;;;8.50;55.76
73415;BME280;61633;53.742;-2.990;2022-10-16T02:05:56;100027.26;;;9.16;54.63
73415;BME280;61633;53.742;-2.990;2022-10-16T02:08:19;100028.05;;;9.56;55.26
73415;BME280;61633;53.742;-2.990;2022-10-16T02:10:44;100030.92;;;9.48;55.21
73415;BME280;61633;53.742;-2.990;2022-10-16T02:13:11;100036.99;;;9.46;55.40
73415;BME280;61633;53.742;-2.990;2022-10-16T02:15:36;100041.97;;;9.68;54.78
73415;BME280;61633;53.742;-2.990;2022-10-16T02:18:02;100044.67;;;9.76;53.12
73415;BME280;61633;53.742;-2.990;2022-10-16T02:20:28;100046.66;;;10.13;52.33
73415;BME280;61633;53.742;-2.990;2022-10-16T02:22:53;100053.76;;;9.65;53.09
73415;BME280;61633;53.742;-2.990;2022-10-16T02:25:22;100062.69;;;8.51;54.85
73415;BME280;61633;53.742;-2.990;2022-10-16T02:27:47;100066.44;;;9.32;54.50
73415;BME280;61633;53.742;-2.990;2022-10-16T02:30:14;100076.85;;;9.89;53.30
73415;BME280;61633;53.742;-2.990;2022-10-16T02:32:37;100082.72;;;9.56;53.59
73415;BME280;61633;53.742;-2.990;2022-10-16T02:35:01;100089.07;;;9.57;53.87
73415;BME280;61633;53.742;-2.990;2022-10-16T02:37:25;100093.98;;;8.93;56.00
73415;BME280;61633;53.742;-2.990;2022-10-16T02:39:51;100104.57;;;9.30;55.19
73415;BME280;61633;53.742;-2.990;2022-10-16T02:42:18;100099.46;;;9.21;53.42
73415;BME280;61633;53.742;-2.990;2022-10-16T02:44:42;100118.14;;;8.90;52.93
73415;BME280;61633;53.742;-2.990;2022-10-16T02:47:07;100112.28;;;8.64;52.82
73415;BME280;61633;53.742;-2.990;2022-10-16T02:49:33;100125.57;;;8.70;52.54
73415;BME280;61633;53.742;-2.990;2022-10-16T02:51:58;100129.62;;;8.98;52.65
73415;BME280;61633;53.742;-2.990;2022-10-16T02:54:29;100134.76;;;9.27;51.09
73415;BME280;61633;53.742;-2.990;2022-10-16T02:56:49;100136.52;;;9.51;51.25
73415;BME280;61633;53.742;-2.990;2022-10-16T02:59:15;100144.19;;;9.54;51.15
73415;BME280;61633;53.742;-2.990;2022-10-16T03:01:41;100148.00;;;9.00;50.80
73415;BME280;61633;53.742;-2.990;2022-10-16T03:04:06;100154.11;;;9.31;51.76
73415;BME280;61633;53.742;-2.990;2022-10-16T03:06:32;100158.85;;;8.98;52.92
73415;BME280;61633;53.742;-2.990;2022-10-16T03:08:58;100165.89;;;8.44;54.11
73415;BME280;61633;53.742;-2.990;2022-10-16T03:11:23;100176.88;;;8.91;53.39
73415;BME280;61633;53.742;-2.990;2022-10-16T03:13:49;100192.22;;;8.90;53.25
73415;BME280;61633;53.742;-2.990;2022-10-16T03:16:14;100179.51;;;9.52;52.34
73415;BME280;61633;53.742;-2.990;2022-10-16T03:18:40;100187.92;;;9.17;52.49
73415;BME280;61633;53.742;-2.990;2022-10-16T03:21:05;100190.13;;;9.68;51.70
73415;BME280;61633;53.742;-2.990;2022-10-16T03:23:31;100196.91;;;8.90;52.49
73415;BME280;61633;53.742;-2.990;2022-10-16T03:25:57;100207.87;;;9.66;49.87
73415;BME280;61633;53.742;-2.990;2022-10-16T03:28:22;100218.62;;;9.50;50.79
73415;BME280;61633;53.742;-2.990;2022-10-16T03:30:48;100229.32;;;9.45;50.63
73415;BME280;61633;53.742;-2.990;2022-10-16T03:33:13;100247.06;;;9.54;49.77
73415;BME280;61633;53.742;-2.990;2022-10-16T03:35:39;100247.67;;;8.70;50.10
73415;BME280;61633;53.742;-2.990;2022-10-16T03:38:05;100251.43;;;8.57;52.29
73415;BME280;61633;53.742;-2.990;2022-10-16T03:40:30;100264.68;;;8.88;51.02
73415;BME280;61633;53.742;-2.990;2022-10-16T03:42:56;100260.48;;;9.37;48.62
73415;BME280;61633;53.742;-2.990;2022-10-16T03:45:22;100293.08;;;8.87;50.13
73415;BME280;61633;53.742;-2.990;2022-10-16T03:47:47;100281.85;;;9.15;47.90
73415;BME280;61633;53.742;-2.990;2022-10-16T03:50:12;100275.98;;;9.98;48.01
73415;BME280;61633;53.742;-2.990;2022-10-16T03:52:39;100286.35;;;10.03;47.25
73415;BME280;61633;53.742;-2.990;2022-10-16T03:55:04;100289.84;;;8.81;49.04
73415;BME280;61633;53.742;-2.990;2022-10-16T03:57:29;100295.11;;;9.49;49.17
73415;BME280;61633;53.742;-2.990;2022-10-16T03:59:54;100300.55;;;9.44;49.21
73415;BME280;61633;53.742;-2.990;2022-10-16T04:02:20;100301.81;;;10.08;48.45
73415;BME280;61633;53.742;-2.990;2022-10-16T04:04:45;100302.40;;;9.60;50.09
73415;BME280;61633;53.742;-2.990;2022-10-16T04:07:11;100305.60;;;8.93;51.54
73415;BME280;61633;53.742;-2.990;2022-10-16T04:09:38;100307.31;;;9.21;50.53
73415;BME280;61633;53.742;-2.990;2022-10-16T04:12:02;100307.78;;;9.19;49.81
73415;BME280;61633;53.742;-2.990;2022-10-16T04:14:28;100309.15;;;9.48;49.72
73415;BME280;61633;53.742;-2.990;2022-10-16T04:16:53;100310.48;;;9.38;51.08
73415;BME280;61633;53.742;-2.990;2022-10-16T04:19:19;100319.93;;;8.70;49.70
73415;BME280;61633;53.742;-2.990;2022-10-16T04:21:44;100331.30;;;9.03;48.87
73415;BME280;61633;53.742;-2.990;2022-10-16T04:24:10;100321.70;;;9.13;49.89
73415;BME280;61633;53.742;-2.990;2022-10-16T04:26:35;100345.68;;;9.31;51.36
73415;BME280;61633;53.742;-2.990;2022-10-16T04:29:01;100334.14;;;9.48;51.62
73415;BME280;61633;53.742;-2.990;2022-10-16T04:31:27;100340.50;;;8.94;52.90
73415;BME280;61633;53.742;-2.990;2022-10-16T04:33:52;100356.89;;;8.73;50.73
73415;BME280;61633;53.742;-2.990;2022-10-16T04:36:18;100362.05;;;8.69;50.43
73415;BME280;61633;53.742;-2.990;2022-10-16T04:38:44;100367.87;;;9.23;49.76
73415;BME280;61633;53.742;-2.990;2022-10-16T04:41:09;100370.60;;;9.45;49.81
73415;BME280;61633;53.742;-2.990;2022-10-16T04:43:35;100378.06;;;9.72;49.79
73415;BME280;61633;53.742;-2.990;2022-10-16T04:46:01;100379.09;;;9.72;50.15
73415;BME280;61633;53.742;-2.990;2022-10-16T04:48:26;100379.21;;;9.14;52.76
73415;BME280;61633;53.742;-2.990;2022-10-16T04:50:51;100392.26;;;9.15;51.55
73415;BME280;61633;53.742;-2.990;2022-10-16T04:53:17;100399.77;;;9.07;48.53
73415;BME280;61633;53.742;-2.990;2022-10-16T04:55:43;100399.70;;;9.85;47.49
73415;BME280;61633;53.742;-2.990;2022-10-16T04:58:08;100401.73;;;8.66;49.98
73415;BME280;61633;53.742;-2.990;2022-10-16T05:00:33;100408.16;;;9.51;48.12
73415;BME280;61633;53.742;-2.990;2022-10-16T05:02:59;100416.06;;;9.47;47.46
73415;BME280;61633;53.742;-2.990;2022-10-16T05:05:25;100419.10;;;9.57;48.22
73415;BME280;61633;53.742;-2.990;2022-10-16T05:07:51;100434.00;;;9.94;48.19
73415;BME280;61633;53.742;-2.990;2022-10-16T05:10:16;100434.03;;;9.33;48.31
73415;BME280;61633;53.742;-2.990;2022-10-16T05:12:42;100439.06;;;9.72;47.77
73415;BME280;61633;53.742;-2.990;2022-10-16T05:15:08;100441.69;;;10.08;47.06
73415;BME280;61633;53.742;-2.990;2022-10-16T05:17:33;100454.93;;;9.67;47.36
73415;BME280;61633;53.742;-2.990;2022-10-16T05:19:58;100445.10;;;9.55;48.52
73415;BME280;61633;53.742;-2.990;2022-10-16T05:22:24;100456.40;;;9.42;49.12
73415;BME280;61633;53.742;-2.990;2022-10-16T05:24:50;100463.00;;;9.31;48.51
73415;BME280;61633;53.742;-2.990;2022-10-16T05:27:15;100462.88;;;8.93;48.93
73415;BME280;61633;53.742;-2.990;2022-10-16T05:29:41;100469.56;;;8.88;49.93
73415;BME280;61633;53.742;-2.990;2022-10-16T05:32:06;100473.95;;;9.91;48.59
73415;BME280;61633;53.742;-2.990;2022-10-16T05:34:32;100482.53;;;9.51;49.81
73415;BME280;61633;53.742;-2.990;2022-10-16T05:36:57;100484.51;;;9.12;49.34
73415;BME280;61633;53.742;-2.990;2022-10-16T05:39:23;100490.89;;;9.12;49.27
73415;BME280;61633;53.742;-2.990;2022-10-16T05:41:50;100494.57;;;9.40;49.27
73415;BME280;61633;53.742;-2.990;2022-10-16T05:44:14;100503.04;;;9.95;48.80
73415;BME280;61633;53.742;-2.990;2022-10-16T05:46:39;100498.67;;;8.79;50.78
73415;BME280;61633;53.742;-2.990;2022-10-16T05:49:05;100505.11;;;9.66;47.93
73415;BME280;61633;53.742;-2.990;2022-10-16T05:51:31;100509.63;;;9.79;47.83
73415;BME280;61633;53.742;-2.990;2022-10-16T05:53:56;100508.50;;;9.56;48.42
73415;BME280;61633;53.742;-2.990;2022-10-16T05:56:22;100512.93;;;9.84;47.60
73415;BME280;61633;53.742;-2.990;2022-10-16T05:58:48;100521.00;;;9.98;47.35
73415;BME280;61633;53.742;-2.990;2022-10-16T06:01:14;100511.13;;;9.81;50.65
73415;BME280;61633;53.742;-2.990;2022-10-16T06:03:39;100517.10;;;9.68;53.16
73415;BME280;61633;53.742;-2.990;2022-10-16T06:06:09;100518.73;;;10.03;52.18
73415;BME280;61633;53.742;-2.990;2022-10-16T06:08:32;100522.47;;;9.41;53.38
73415;BME280;61633;53.742;-2.990;2022-10-16T06:11:02;100521.02;;;9.88;53.48
73415;BME280;61633;53.742;-2.990;2022-10-16T06:13:21;100524.52;;;9.70;53.33
73415;BME280;61633;53.742;-2.990;2022-10-16T06:15:47;100539.09;;;9.62;53.63
73415;BME280;61633;53.742;-2.990;2022-10-16T06:18:12;100542.20;;;9.61;52.12
73415;BME280;61633;53.742;-2.990;2022-10-16T06:20:39;100541.92;;;9.70;53.02
73415;BME280;61633;53.742;-2.990;2022-10-16T06:23:04;100556.11;;;10.04;53.95
73415;BME280;61633;53.742;-2.990;2022-10-16T06:25:30;100564.15;;;9.95;53.06
73415;BME280;61633;53.742;-2.990;2022-10-16T06:27:55;100570.77;;;9.44;51.99
73415;BME280;61633;53.742;-2.990;2022-10-16T06:30:20;100572.32;;;9.61;49.70
73415;BME280;61633;53.742;-2.990;2022-10-16T06:32:46;100570.11;;;9.14;50.33
73415;BME280;61633;53.742;-2.990;2022-10-16T06:35:11;100579.79;;;9.63;49.65
73415;BME280;61633;53.742;-2.990;2022-10-16T06:37:37;100582.76;;;9.96;48.65
73415;BME280;61633;53.742;-2.990;2022-10-16T06:40:03;100587.01;;;10.06;48.00
73415;BME280;61633;53.742;-2.990;2022-10-16T06:42:28;100590.04;;;10.04;49.64
73415;BME280;61633;53.742;-2.990;2022-10-16T06:44:53;100595.82;;;10.08;48.80
73415;BME280;61633;53.742;-2.990;2022-10-16T06:47:19;100603.48;;;10.54;48.23
73415;BME280;61633;53.742;-2.990;2022-10-16T06:49:45;100611.11;;;10.31;47.34
73415;BME280;61633;53.742;-2.990;2022-10-16T06:52:10;100620.26;;;9.31;48.95
73415;BME280;61633;53.742;-2.990;2022-10-16T06:54:38;100628.98;;;10.30;46.75
73415;BME280;61633;53.742;-2.990;2022-10-16T06:57:02;100629.38;;;10.04;46.61
73415;BME280;61633;53.742;-2.990;2022-10-16T06:59:27;100639.33;;;10.16;45.67
73415;BME280;61633;53.742;-2.990;2022-10-16T07:01:52;100643.36;;;9.54;46.69
73415;BME280;61633;53.742;-2.990;2022-10-16T07:04:18;100652.20;;;9.34;48.54
73415;BME280;61633;53.742;-2.990;2022-10-16T07:06:44;100655.32;;;10.28;47.14
73415;BME280;61633;53.742;-2.990;2022-10-16T07:09:10;100679.16;;;9.67;48.81
73415;BME280;61633;53.742;-2.990;2022-10-16T07:11:37;100677.35;;;9.80;48.89
73415;BME280;61633;53.742;-2.990;2022-10-16T07:14:01;100674.78;;;10.45;47.28
73415;BME280;61633;53.742;-2.990;2022-10-16T07:16:27;100687.01;;;9.95;47.54
73415;BME280;61633;53.742;-2.990;2022-10-16T07:18:53;100690.68;;;10.35;47.28
73415;BME280;61633;53.742;-2.990;2022-10-16T07:21:19;100688.85;;;9.86;47.74
73415;BME280;61633;53.742;-2.990;2022-10-16T07:23:43;100700.76;;;8.75;50.35
73415;BME280;61633;53.742;-2.990;2022-10-16T07:26:09;100698.75;;;10.78;45.90
73415;BME280;61633;53.742;-2.990;2022-10-16T07:28:34;100712.65;;;10.72;45.51
73415;BME280;61633;53.742;-2.990;2022-10-16T07:31:01;100722.00;;;10.44;46.31
73415;BME280;61633;53.742;-2.990;2022-10-16T07:33:25;100733.16;;;9.99;48.14
73415;BME280;61633;53.742;-2.990;2022-10-16T07:35:52;100730.95;;;10.08;47.21
73415;BME280;61633;53.742;-2.990;2022-10-16T07:38:17;100738.51;;;10.86;47.36
73415;BME280;61633;53.742;-2.990;2022-10-16T07:40:42;100748.25;;;10.69;44.82
73415;BME280;61633;53.742;-2.990;2022-10-16T07:43:07;100748.37;;;10.22;45.54
73415;BME280;61633;53.742;-2.990;2022-10-16T07:45:33;100754.36;;;10.32;46.10
73415;BME280;61633;53.742;-2.990;2022-10-16T07:47:58;100759.65;;;11.04;45.38
73415;BME280;61633;53.742;-2.990;2022-10-16T07:50:23;100761.75;;;10.98;45.16
73415;BME280;61633;53.742;-2.990;2022-10-16T07:52:49;100772.67;;;10.25;47.31
73415;BME280;61633;53.742;-2.990;2022-10-16T07:55:15;100773.31;;;10.78;46.82
73415;BME280;61633;53.742;-2.990;2022-10-16T07:57:40;100782.39;;;10.09;46.90
73415;BME280;61633;53.742;-2.990;2022-10-16T08:00:07;100777.85;;;10.61;46.85
73415;BME280;61633;53.742;-2.990;2022-10-16T08:02:32;100786.01;;;11.50;46.54
73415;BME280;61633;53.742;-2.990;2022-10-16T08:04:58;100794.87;;;11.32;45.69
73415;BME280;61633;53.742;-2.990;2022-10-16T08:07:23;100796.96;;;11.20;44.68
73415;BME280;61633;53.742;-2.990;2022-10-16T08:09:51;100801.90;;;11.67;43.78
73415;BME280;61633;53.742;-2.990;2022-10-16T08:12:14;100798.52;;;10.79;45.55
73415;BME280;61633;53.742;-2.990;2022-10-16T08:14:39;100797.93;;;10.41;46.89
73415;BME280;61633;53.742;-2.990;2022-10-16T08:17:05;100801.40;;;10.59;46.05
73415;BME280;61633;53.742;-2.990;2022-10-16T08:19:30;100812.47;;;11.18;46.36
73415;BME280;61633;53.742;-2.990;2022-10-16T08:21:56;100833.94;;;12.13;44.66
73415;BME280;61633;53.742;-2.990;2022-10-16T08:24:21;100842.28;;;11.28;45.24
73415;BME280;61633;53.742;-2.990;2022-10-16T08:26:47;100851.32;;;12.26;44.50
73415;BME280;61633;53.742;-2.990;2022-10-16T08:29:13;100857.82;;;11.27;45.41
73415;BME280;61633;53.742;-2.990;2022-10-16T08:31:38;100858.82;;;11.31;45.30
73415;BME280;61633;53.742;-2.990;2022-10-16T08:34:03;100862.90;;;11.56;44.10
73415;BME280;61633;53.742;-2.990;2022-10-16T08:36:29;100866.34;;;11.95;42.99
73415;BME280;61633;53.742;-2.990;2022-10-16T08:38:54;100869.62;;;12.43;41.84
73415;BME280;61633;53.742;-2.990;2022-10-16T08:43:57;100880.95;;;12.05;44.00
73415;BME280;61633;53.742;-2.990;2022-10-16T08:46:21;100891.51;;;12.83;42.31
73415;BME280;61633;53.742;-2.990;2022-10-16T08:48:43;100890.78;;;11.37;44.45
73415;BME280;61633;53.742;-2.990;2022-10-16T08:51:04;100894.44;;;11.73;43.24
73415;BME280;61633;53.742;-2.990;2022-10-16T08:53:31;100892.69;;;11.99;43.71
73415;BME280;61633;53.742;-2.990;2022-10-16T08:55:53;100892.85;;;11.45;44.66
73415;BME280;61633;53.742;-2.990;2022-10-16T08:58:21;100904.80;;;12.38;43.56
73415;BME280;61633;53.742;-2.990;2022-10-16T09:00:47;100913.00;;;11.80;43.76
73415;BME280;61633;53.742;-2.990;2022-10-16T09:03:21;100914.27;;;12.21;44.06
73415;BME280;61633;53.742;-2.990;2022-10-16T09:05:48;100922.29;;;12.39;43.78
73415;BME280;61633;53.742;-2.990;2022-10-16T09:08:07;100927.87;;;12.44;43.44
73415;BME280;61633;53.742;-2.990;2022-10-16T09:10:35;100927.72;;;12.48;43.41
73415;BME280;61633;53.742;-2.990;2022-10-16T09:12:56;100933.46;;;12.44;43.57
73415;BME280;61633;53.742;-2.990;2022-10-16T09:15:30;100932.40;;;11.48;43.88
73415;BME280;61633;53.742;-2.990;2022-10-16T09:17:49;100940.31;;;12.95;42.63
73415;BME280;61633;53.742;-2.990;2022-10-16T09:20:19;100938.44;;;11.39;44.27
73415;BME280;61633;53.742;-2.990;2022-10-16T09:22:34;100942.94;;;11.93;43.80
73415;BME280;61633;53.742;-2.990;2022-10-16T09:25:04;100945.16;;;12.16;43.25
73415;BME280;61633;53.742;-2.990;2022-10-16T09:27:26;100944.73;;;11.76;44.76
73415;BME280;61633;53.742;-2.990;2022-10-16T09:29:50;100950.21;;;11.78;44.73
73415;BME280;61633;53.742;-2.990;2022-10-16T09:32:19;100953.82;;;11.90;44.69
73415;BME280;61633;53.742;-2.990;2022-10-16T09:34:45;100952.49;;;11.56;45.29
73415;BME280;61633;53.742;-2.990;2022-10-16T09:37:10;100956.58;;;11.56;44.63
73415;BME280;61633;53.742;-2.990;2022-10-16T09:41:59;100963.46;;;12.99;42.48
73415;BME280;61633;53.742;-2.990;2022-10-16T09:44:26;100966.86;;;13.06;41.82
73415;BME280;61633;53.742;-2.990;2022-10-16T09:46:49;100967.02;;;13.20;40.99
73415;BME280;61633;53.742;-2.990;2022-10-16T09:49:22;100970.72;;;13.25;41.53
73415;BME280;61633;53.742;-2.990;2022-10-16T09:51:40;100970.53;;;12.91;41.51
73415;BME280;61633;53.742;-2.990;2022-10-16T09:54:13;100969.57;;;12.91;41.49
73415;BME280;61633;53.742;-2.990;2022-10-16T09:56:33;100973.80;;;12.92;41.75
73415;BME280;61633;53.742;-2.990;2022-10-16T09:58:58;100981.65;;;12.21;42.60
73415;BME280;61633;53.742;-2.990;2022-10-16T10:01:26;100983.11;;;12.73;41.41
73415;BME280;61633;53.742;-2.990;2022-10-16T10:03:48;100990.37;;;12.39;41.79
73415;BME280;61633;53.742;-2.990;2022-10-16T10:06:24;100992.10;;;13.09;40.99
73415;BME280;61633;53.742;-2.990;2022-10-16T10:08:39;100995.78;;;13.90;40.84
73415;BME280;61633;53.742;-2.990;2022-10-16T10:11:04;101003.27;;;13.18;41.42
73415;BME280;61633;53.742;-2.990;2022-10-16T10:13:30;100999.52;;;13.77;41.34
73415;BME280;61633;53.742;-2.990;2022-10-16T10:15:56;100994.47;;;14.58;39.34
73415;BME280;61633;53.742;-2.990;2022-10-16T10:18:22;100999.47;;;13.34;41.09
73415;BME280;61633;53.742;-2.990;2022-10-16T10:20:59;100990.30;;;14.08;39.27
73415;BME280;61633;53.742;-2.990;2022-10-16T10:23:21;100987.59;;;13.87;38.89
73415;BME280;61633;53.742;-2.990;2022-10-16T10:25:46;100997.38;;;13.59;39.28
73415;BME280;61633;53.742;-2.990;2022-10-16T10:28:15;101005.64;;;13.85;39.10
73415;BME280;61633;53.742;-2.990;2022-10-16T10:30:35;101009.38;;;13.63;40.87
73415;BME280;61633;53.742;-2.990;2022-10-16T10:33:07;101009.58;;;14.86;38.48
73415;BME280;61633;53.742;-2.990;2022-10-16T10:35:24;101012.69;;;15.21;37.97
73415;BME280;61633;53.742;-2.990;2022-10-16T10:37:55;101017.80;;;15.18;36.95
73415;BME280;61633;53.742;-2.990;2022-10-16T10:40:21;101018.03;;;14.91;37.75
73415;BME280;61633;53.742;-2.990;2022-10-16T10:42:41;101023.73;;;15.34;37.40
73415;BME280;61633;53.742;-2.990;2022-10-16T10:45:14;101030.28;;;15.44;38.07
73415;BME280;61633;53.742;-2.990;2022-10-16T10:47:35;101028.66;;;14.14;37.82
73415;BME280;61633;53.742;-2.990;2022-10-16T10:50:03;101035.24;;;14.04;39.02
73415;BME280;61633;53.742;-2.990;2022-10-16T10:52:36;101030.33;;;14.32;38.11
73415;BME280;61633;53.742;-2.990;2022-10-16T10:54:50;101035.82;;;14.90;37.25
73415;BME280;61633;53.742;-2.990;2022-10-16T10:57:13;101042.55;;;13.87;40.78
73415;BME280;61633;53.742;-2.990;2022-10-16T10:59:48;101040.11;;;14.45;39.27
73415;BME280;61633;53.742;-2.990;2022-10-16T11:02:04;101037.24;;;14.41;39.32
73415;BME280;61633;53.742;-2.990;2022-10-16T11:04:35;101046.69;;;11.59;43.65
73415;BME280;61633;53.742;-2.990;2022-10-16T11:06:56;101053.57;;;12.61;44.38
73415;BME280;61633;53.742;-2.990;2022-10-16T11:09:21;101061.77;;;12.31;45.98
73415;BME280;61633;53.742;-2.990;2022-10-16T11:11:45;101064.55;;;12.20;47.57
73415;BME280;61633;53.742;-2.990;2022-10-16T11:14:16;101062.21;;;12.25;48.40
73415;BME280;61633;53.742;-2.990;2022-10-16T11:16:39;101061.69;;;11.89;47.34
73415;BME280;61633;53.742;-2.990;2022-10-16T11:19:04;101056.91;;;12.51;46.19
73415;BME280;61633;53.742;-2.990;2022-10-16T11:21:24;101059.36;;;12.63;45.13
73415;BME280;61633;53.742;-2.990;2022-10-16T11:23:55;101061.26;;;11.93;45.65
73415;BME280;61633;53.742;-2.990;2022-10-16T11:26:17;101062.32;;;11.74;45.40
73415;BME280;61633;53.742;-2.990;2022-10-16T11:28:45;101066.79;;;10.60;47.67
73415;BME280;61633;53.742;-2.990;2022-10-16T11:31:10;101058.14;;;12.09;45.71
73415;BME280;61633;53.742;-2.990;2022-10-16T11:33:38;101066.35;;;11.76;46.49
73415;BME280;61633;53.742;-2.990;2022-10-16T11:36:03;101068.08;;;12.41;45.19
73415;BME280;61633;53.742;-2.990;2022-10-16T11:38:28;101074.54;;;12.61;44.03
73415;BME280;61633;53.742;-2.990;2022-10-16T11:40:51;101075.33;;;11.85;45.65
73415;BME280;61633;53.742;-2.990;2022-10-16T11:43:19;101073.80;;;12.81;44.49
73415;BME280;61633;53.742;-2.990;2022-10-16T11:45:42;101070.98;;;12.47;44.09
73415;BME280;61633;53.742;-2.990;2022-10-16T11:48:12;101074.05;;;12.04;46.09
73415;BME280;61633;53.742;-2.990;2022-10-16T11:50:34;101079.73;;;12.86;44.83
73415;BME280;61633;53.742;-2.990;2022-10-16T11:53:03;101083.67;;;12.09;45.91
73415;BME280;61633;53.742;-2.990;2022-10-16T11:55:25;101074.47;;;12.49;44.40
73415;BME280;61633;53.742;-2.990;2022-10-16T11:57:51;101068.00;;;12.71;43.83
73415;BME280;61633;53.742;-2.990;2022-10-16T12:00:22;101064.52;;;12.84;41.87
73415;BME280;61633;53.742;-2.990;2022-10-16T12:02:49;101062.96;;;12.09;44.20
73415;BME280;61633;53.742;-2.990;2022-10-16T12:05:14;101064.52;;;11.98;44.71
73415;BME280;61633;53.742;-2.990;2022-10-16T12:07:35;101062.37;;;12.21;44.80
73415;BME280;61633;53.742;-2.990;2022-10-16T12:09:55;101053.57;;;12.99;42.71
73415;BME280;61633;53.742;-2.990;2022-10-16T12:12:25;101049.25;;;13.14;43.43
73415;BME280;61633;53.742;-2.990;2022-10-16T12:14:46;101043.17;;;13.12;42.26
73415;BME280;61633;53.742;-2.990;2022-10-16T12:17:25;101039.69;;;12.86;41.46
73415;BME280;61633;53.742;-2.990;2022-10-16T12:19:39;101036.60;;;14.52;40.65
73415;BME280;61633;53.742;-2.990;2022-10-16T12:22:03;101042.11;;;14.01;40.14
73415;BME280;61633;53.742;-2.990;2022-10-16T12:24:34;101043.35;;;12.28;43.75
73415;BME280;61633;53.742;-2.990;2022-10-16T12:26:54;101046.60;;;13.97;40.57
73415;BME280;61633;53.742;-2.990;2022-10-16T12:29:26;101056.78;;;13.21;41.76
73415;BME280;61633;53.742;-2.990;2022-10-16T12:31:46;101064.00;;;13.58;41.22
73415;BME280;61633;53.742;-2.990;2022-10-16T12:34:20;101063.70;;;14.03;40.16
73415;BME280;61633;53.742;-2.990;2022-10-16T12:36:35;101064.75;;;13.59;39.48
73415;BME280;61633;53.742;-2.990;2022-10-16T12:39:02;101076.01;;;13.68;40.14
73415;BME280;61633;53.742;-2.990;2022-10-16T12:41:29;101076.01;;;14.22;40.40
73415;BME280;61633;53.742;-2.990;2022-10-16T12:43:52;101081.94;;;13.72;40.95